createdAt,value
2018-12-16T00:00:49.559Z,96397.86
2018-12-16T00:03:17.653Z,96398.28
2018-12-16T00:05:45.250Z,96372.58
2018-12-16T00:08:12.863Z,96366.88
2018-12-16T00:10:40.663Z,96362.61
2018-12-16T00:13:08.065Z,96342.89
2018-12-16T00:15:35.879Z,96325.65
2018-12-16T00:18:03.568Z,96323.89
2018-12-16T00:20:30.972Z,96322.23
2018-12-16T00:22:58.752Z,96324.96
2018-12-16T00:25:26.164Z,96315.09
2018-12-16T00:27:53.950Z,96320.26
2018-12-16T00:30:21.635Z,96322.09
2018-12-16T00:32:49.231Z,96318.21
2018-12-16T00:35:16.643Z,96313.88
2018-12-16T00:37:44.395Z,96311.66
2018-12-16T00:40:11.803Z,96309.47
2018-12-16T00:42:40.005Z,96314.64
2018-12-16T00:45:07.692Z,96305.53
2018-12-16T00:47:35.094Z,96305.89
2018-12-16T00:50:03.653Z,96305.29
2018-12-16T00:52:36.429Z,96301.34
2018-12-16T00:55:01.485Z,96301.28
2018-12-16T00:57:28.883Z,96296.05
2018-12-16T00:59:56.339Z,96288.30
2018-12-16T01:02:29.259Z,96284.42
2018-12-16T01:04:56.968Z,96285.33
2018-12-16T01:07:24.400Z,96287.08
2018-12-16T01:09:52.416Z,96281.92
2018-12-16T01:12:20.084Z,96281.92
2018-12-16T01:14:48.820Z,96282.81
2018-12-16T01:17:16.417Z,96285.39
2018-12-16T01:19:43.844Z,96272.13
2018-12-16T01:22:11.251Z,96269.22
2018-12-16T01:24:39.355Z,96259.14
2018-12-16T01:27:06.856Z,96251.94
2018-12-16T01:29:34.267Z,96258.31
2018-12-16T01:32:01.766Z,96264.66
2018-12-16T01:34:29.320Z,96248.28
2018-12-16T01:36:57.620Z,96244.70
2018-12-16T01:39:25.087Z,96240.40
2018-12-16T01:41:52.523Z,96233.55
2018-12-16T01:44:19.927Z,96227.02
2018-12-16T01:46:47.343Z,96218.20
2018-12-16T01:49:14.859Z,96204.69
2018-12-16T01:51:42.267Z,96199.27
2018-12-16T01:54:09.667Z,96193.50
2018-12-16T01:56:37.268Z,96180.45
2018-12-16T01:59:05.459Z,96181.19
2018-12-16T02:01:32.911Z,96178.36
2018-12-16T02:04:00.655Z,96170.74
2018-12-16T02:06:28.060Z,96160.27
2018-12-16T02:08:55.463Z,96152.05
2018-12-16T02:11:23.019Z,96143.83
2018-12-16T02:13:51.323Z,96144.30
2018-12-16T02:16:18.920Z,96141.92
2018-12-16T02:18:46.614Z,96136.14
2018-12-16T02:21:14.408Z,96147.22
2018-12-16T02:23:41.820Z,96138.18
2018-12-16T02:26:09.247Z,96138.64
2018-12-16T02:28:36.659Z,96131.72
2018-12-16T02:31:04.731Z,96128.67
2018-12-16T02:33:32.275Z,96118.96
2018-12-16T02:36:00.370Z,96123.97
2018-12-16T02:38:27.773Z,96119.97
2018-12-16T02:40:55.271Z,96112.30
2018-12-16T02:43:23.273Z,96106.39
2018-12-16T02:45:50.754Z,96114.13
2018-12-16T02:48:18.264Z,96107.67
2018-12-16T02:50:45.807Z,96098.09
2018-12-16T02:53:13.275Z,96098.56
2018-12-16T02:55:41.027Z,96107.13
2018-12-16T02:58:08.428Z,96095.16
2018-12-16T03:00:35.830Z,96099.11
2018-12-16T03:03:03.380Z,96099.11
2018-12-16T03:05:30.875Z,96096.13
2018-12-16T03:07:58.324Z,96095.77
2018-12-16T03:10:25.763Z,96091.98
2018-12-16T03:12:53.795Z,96093.34
2018-12-16T03:15:21.790Z,96089.47
2018-12-16T03:17:49.204Z,96092.05
2018-12-16T03:20:16.621Z,96092.45
2018-12-16T03:22:44.357Z,96089.86
2018-12-16T03:25:12.145Z,96093.27
2018-12-16T03:27:39.552Z,96092.45
2018-12-16T03:30:09.602Z,96085.13
2018-12-16T03:32:37.191Z,96077.70
2018-12-16T03:35:04.705Z,96083.33
2018-12-16T03:37:32.109Z,96081.57
2018-12-16T03:39:59.760Z,96082.78
2018-12-16T03:42:27.628Z,96081.92
2018-12-16T03:44:55.322Z,96079.22
2018-12-16T03:47:23.184Z,96072.02
2018-12-16T03:49:50.885Z,96062.82
2018-12-16T03:52:19.840Z,96063.18
2018-12-16T03:54:47.371Z,96064.39
2018-12-16T03:57:14.799Z,96058.95
2018-12-16T03:59:42.212Z,96069.20
2018-12-16T04:02:09.845Z,96059.41
2018-12-16T04:04:37.248Z,96053.32
2018-12-16T04:07:05.442Z,96049.75
2018-12-16T04:09:33.032Z,96044.05
2018-12-16T04:12:00.437Z,96041.27
2018-12-16T04:14:27.841Z,96045.34
2018-12-16T04:16:55.405Z,96034.27
2018-12-16T04:19:22.807Z,96020.45
2018-12-16T04:21:50.226Z,96025.81
2018-12-16T04:24:17.945Z,96019.44
2018-12-16T04:26:45.336Z,96025.73
2018-12-16T04:29:13.729Z,96021.47
2018-12-16T04:31:41.265Z,96010.78
2018-12-16T04:34:08.676Z,96005.16
2018-12-16T04:36:36.068Z,96009.38
2018-12-16T04:39:05.585Z,96012.36
2018-12-16T04:41:32.990Z,96013.80
2018-12-16T04:44:00.998Z,96019.91
2018-12-16T04:46:28.514Z,96018.23
2018-12-16T04:48:55.990Z,96019.70
2018-12-16T04:51:23.482Z,96012.51
2018-12-16T04:53:50.997Z,96009.53
2018-12-16T04:56:18.393Z,96016.46
2018-12-16T04:58:45.792Z,96008.79
2018-12-16T05:01:13.616Z,96013.88
2018-12-16T05:03:41.007Z,96014.63
2018-12-16T05:06:08.686Z,96014.46
2018-12-16T05:08:36.296Z,96018.15
2018-12-16T05:11:03.811Z,96025.89
2018-12-16T05:13:31.208Z,96022.02
2018-12-16T05:15:58.973Z,96016.86
2018-12-16T05:18:26.400Z,96034.03
2018-12-16T05:20:53.785Z,96024.69
2018-12-16T05:23:21.337Z,96016.50
2018-12-16T05:25:49.035Z,96015.95
2018-12-16T05:28:16.467Z,96022.02
2018-12-16T05:30:44.223Z,96024.13
2018-12-16T05:33:11.697Z,96017.91
2018-12-16T05:35:39.583Z,96011.17
2018-12-16T05:38:07.209Z,96009.80
2018-12-16T05:40:34.615Z,96020.95
2018-12-16T05:43:02.051Z,96022.33
2018-12-16T05:45:29.579Z,96031.29
2018-12-16T05:47:57.039Z,96030.55
2018-12-16T05:50:24.608Z,96033.67
2018-12-16T05:52:52.286Z,96038.76
2018-12-16T05:55:19.790Z,96034.97
2018-12-16T05:57:47.685Z,96037.34
2018-12-16T06:00:15.432Z,96040.28
2018-12-16T06:02:42.836Z,96034.57
2018-12-16T06:05:10.234Z,96043.45
2018-12-16T06:07:38.032Z,96040.33
2018-12-16T06:10:06.154Z,96044.48
2018-12-16T06:12:34.447Z,96048.20
2018-12-16T06:15:02.552Z,96048.86
2018-12-16T06:17:29.942Z,96045.81
2018-12-16T06:19:57.357Z,96039.36
2018-12-16T06:22:24.921Z,96036.70
2018-12-16T06:24:52.727Z,96038.93
2018-12-16T06:27:20.129Z,96041.98
2018-12-16T06:29:48.084Z,96038.50
2018-12-16T06:32:15.565Z,96036.38
2018-12-16T06:34:42.980Z,96020.14
2018-12-16T06:37:10.676Z,96025.70
2018-12-16T06:39:38.476Z,96029.37
2018-12-16T06:42:05.883Z,96021.39
2018-12-16T06:44:33.660Z,96016.02
2018-12-16T06:47:01.092Z,96016.41
2018-12-16T06:49:29.060Z,96016.14
2018-12-16T06:51:56.952Z,96007.09
2018-12-16T06:54:24.368Z,96012.06
2018-12-16T06:56:51.777Z,96006.45
2018-12-16T06:59:19.328Z,95998.17
2018-12-16T07:01:46.736Z,95998.83
2018-12-16T07:04:14.136Z,95997.34
2018-12-16T07:06:41.899Z,96007.91
2018-12-16T07:09:09.297Z,96009.55
2018-12-16T07:11:36.706Z,96004.30
2018-12-16T07:14:04.135Z,96001.98
2018-12-16T07:16:31.540Z,96007.45
2018-12-16T07:18:58.946Z,95996.34
2018-12-16T07:21:26.551Z,95998.10
2018-12-16T07:23:53.952Z,95990.90
2018-12-16T07:26:21.364Z,95995.05
2018-12-16T07:28:49.118Z,95998.29
2018-12-16T07:31:16.516Z,95996.09
2018-12-16T07:33:44.680Z,95995.15
2018-12-16T07:36:12.417Z,95985.11
2018-12-16T07:38:39.815Z,95993.52
2018-12-16T07:41:07.398Z,95988.88
2018-12-16T07:43:35.110Z,95983.53
2018-12-16T07:46:02.578Z,95989.53
2018-12-16T07:48:30.143Z,95993.33
2018-12-16T07:50:57.896Z,95981.13
2018-12-16T07:53:25.295Z,95977.52
2018-12-16T07:55:53.415Z,95970.49
2018-12-16T07:58:21.152Z,95962.09
2018-12-16T08:00:48.683Z,95964.77
2018-12-16T08:03:16.260Z,95974.73
2018-12-16T08:05:44.043Z,95980.83
2018-12-16T08:08:11.459Z,95959.48
2018-12-16T08:10:38.864Z,95964.83
2018-12-16T08:13:06.570Z,95966.03
2018-12-16T08:15:33.973Z,95981.30
2018-12-16T08:18:01.880Z,95997.00
2018-12-16T08:20:29.498Z,95995.23
2018-12-16T08:22:56.953Z,95999.86
2018-12-16T08:25:24.996Z,95992.00
2018-12-16T08:27:52.735Z,96001.97
2018-12-16T08:30:20.222Z,96009.74
2018-12-16T08:32:47.705Z,96002.97
2018-12-16T08:35:15.256Z,96002.70
2018-12-16T08:37:42.666Z,95994.16
2018-12-16T08:40:10.846Z,95992.22
2018-12-16T08:42:38.281Z,95993.80
2018-12-16T08:45:06.422Z,96001.27
2018-12-16T08:47:33.876Z,95991.02
2018-12-16T08:50:01.436Z,96001.19
2018-12-16T08:52:29.744Z,96001.66
2018-12-16T08:54:57.427Z,96000.76
2018-12-16T08:57:25.025Z,96018.11
2018-12-16T08:59:52.816Z,96016.47
2018-12-16T09:02:20.279Z,96019.41
2018-12-16T09:04:47.920Z,96011.20
2018-12-16T09:07:15.787Z,96011.12
2018-12-16T09:09:43.553Z,96015.44
2018-12-16T09:12:11.317Z,96008.97
2018-12-16T09:14:38.743Z,96024.98
2018-12-16T09:17:06.127Z,96009.44
2018-12-16T09:19:33.723Z,96006.50
2018-12-16T09:22:01.123Z,95986.78
2018-12-16T09:24:28.516Z,95988.07
2018-12-16T09:26:56.258Z,95998.69
2018-12-16T09:29:23.661Z,95996.39
2018-12-16T09:31:51.069Z,95992.52
2018-12-16T09:34:18.502Z,95988.98
2018-12-16T09:36:45.914Z,95990.18
2018-12-16T09:39:13.320Z,95967.60
2018-12-16T09:41:41.099Z,95976.02
2018-12-16T09:44:08.504Z,95976.12
2018-12-16T09:46:35.903Z,95977.22
2018-12-16T09:49:03.607Z,95966.56
2018-12-16T09:51:31.288Z,95969.41
2018-12-16T09:53:58.695Z,95961.70
2018-12-16T09:56:26.251Z,95961.30
2018-12-16T09:58:53.691Z,95965.27
2018-12-16T10:01:21.463Z,95958.95
2018-12-16T10:03:49.039Z,95966.44
2018-12-16T10:06:16.447Z,95963.06
2018-12-16T10:08:44.578Z,95964.99
2018-12-16T10:11:12.194Z,95944.89
2018-12-16T10:13:39.665Z,95952.48
2018-12-16T10:16:07.138Z,95957.45
2018-12-16T10:18:34.919Z,95952.98
2018-12-16T10:21:02.520Z,95954.28
2018-12-16T10:23:29.979Z,95962.34
2018-12-16T10:25:57.658Z,95961.30
2018-12-16T10:28:25.078Z,95955.86
2018-12-16T10:30:52.557Z,95960.48
2018-12-16T10:33:20.163Z,95956.59
2018-12-16T10:35:47.860Z,95957.79
2018-12-16T10:38:15.259Z,95965.00
2018-12-16T10:40:43.045Z,95969.08
2018-12-16T10:43:10.640Z,95965.19
2018-12-16T10:45:38.051Z,95966.17
2018-12-16T10:48:05.817Z,95961.90
2018-12-16T10:50:34.161Z,95966.86
2018-12-16T10:53:01.567Z,95967.97
2018-12-16T10:55:29.111Z,95966.83
2018-12-16T10:57:56.527Z,95966.79
2018-12-16T11:00:29.832Z,95960.70
2018-12-16T11:02:57.254Z,95973.16
2018-12-16T11:05:25.276Z,95977.58
2018-12-16T11:07:52.853Z,95981.25
2018-12-16T11:10:20.252Z,95980.67
2018-12-16T11:12:47.768Z,95963.71
2018-12-16T11:15:15.441Z,95973.77
2018-12-16T11:17:42.913Z,95970.25
2018-12-16T11:20:10.386Z,95968.85
2018-12-16T11:22:37.990Z,95962.27
2018-12-16T11:25:07.656Z,95963.91
2018-12-16T11:27:35.255Z,95964.53
2018-12-16T11:30:02.960Z,95957.84
2018-12-16T11:32:30.447Z,95956.70
2018-12-16T11:34:57.852Z,95948.78
2018-12-16T11:37:26.532Z,95943.14
2018-12-16T11:39:53.941Z,95950.59
2018-12-16T11:42:22.040Z,95950.02
2018-12-16T11:44:49.520Z,95944.73
2018-12-16T11:47:17.330Z,95948.77
2018-12-16T11:49:44.828Z,95948.91
2018-12-16T11:52:12.492Z,95949.28
2018-12-16T11:54:39.956Z,95951.45
2018-12-16T11:57:07.949Z,95958.91
2018-12-16T11:59:35.552Z,95954.70
2018-12-16T12:02:02.969Z,95958.05
2018-12-16T12:04:30.474Z,95956.66
2018-12-16T12:06:58.061Z,95947.73
2018-12-16T12:09:25.482Z,95945.10
2018-12-16T12:11:53.589Z,95938.77
2018-12-16T12:14:21.157Z,95939.62
2018-12-16T12:16:48.563Z,95930.41
2018-12-16T12:19:15.985Z,95940.33
2018-12-16T12:21:43.520Z,95933.86
2018-12-16T12:24:10.925Z,95914.67
2018-12-16T12:26:38.331Z,95936.25
2018-12-16T12:29:05.808Z,95938.02
2018-12-16T12:31:33.204Z,95919.02
2018-12-16T12:34:00.612Z,95919.14
2018-12-16T12:36:28.522Z,95920.19
2018-12-16T12:38:55.926Z,95910.80
2018-12-16T12:41:23.338Z,95922.81
2018-12-16T12:43:50.926Z,95925.98
2018-12-16T12:46:18.337Z,95929.89
2018-12-16T12:48:45.742Z,95925.05
2018-12-16T12:51:13.403Z,95926.48
2018-12-16T12:53:40.820Z,95939.16
2018-12-16T12:56:08.223Z,95950.28
2018-12-16T12:58:35.649Z,95936.53
2018-12-16T13:01:03.187Z,95931.59
2018-12-16T13:03:31.084Z,95937.91
2018-12-16T13:05:58.668Z,95933.03
2018-12-16T13:08:26.178Z,95932.99
2018-12-16T13:10:53.583Z,95925.58
2018-12-16T13:13:21.821Z,95942.91
2018-12-16T13:15:49.506Z,95937.33
2018-12-16T13:18:16.948Z,95944.61
2018-12-16T13:20:44.468Z,95946.94
2018-12-16T13:23:12.444Z,95956.80
2018-12-16T13:25:51.828Z,95955.65
2018-12-16T13:28:19.235Z,95953.53
2018-12-16T13:30:46.640Z,95948.17
2018-12-16T13:33:14.213Z,95952.34
2018-12-16T13:35:41.640Z,95946.77
2018-12-16T13:38:09.025Z,95965.12
2018-12-16T13:40:36.676Z,95956.25
2018-12-16T13:43:04.140Z,95959.47
2018-12-16T13:45:31.663Z,95971.31
2018-12-16T13:47:59.084Z,95975.82
2018-12-16T13:50:26.504Z,95987.92
2018-12-16T13:52:54.507Z,95989.56
2018-12-16T13:55:21.978Z,95995.14
2018-12-16T13:57:49.841Z,95993.13
2018-12-16T14:00:17.308Z,95993.84
2018-12-16T14:02:44.818Z,96002.36
2018-12-16T14:05:12.226Z,96003.07
2018-12-16T14:07:39.624Z,96010.77
2018-12-16T14:10:07.279Z,96006.61
2018-12-16T14:12:35.290Z,96014.20
2018-12-16T14:15:02.931Z,96010.55
2018-12-16T14:17:30.743Z,96013.71
2018-12-16T14:19:58.147Z,96017.17
2018-12-16T14:22:26.976Z,96031.61
2018-12-16T14:24:54.673Z,96029.59
2018-12-16T14:27:22.289Z,96032.69
2018-12-16T14:29:49.893Z,96029.82
2018-12-16T14:32:17.326Z,96035.75
2018-12-16T14:34:44.729Z,96032.88
2018-12-16T14:37:12.719Z,96028.25
2018-12-16T14:39:40.411Z,96039.61
2018-12-16T14:42:08.088Z,96045.52
2018-12-16T14:44:35.487Z,96048.60
2018-12-16T14:47:02.922Z,96045.63
2018-12-16T14:49:30.914Z,96050.01
2018-12-16T14:51:58.504Z,96047.99
2018-12-16T14:54:26.016Z,96041.70
2018-12-16T14:56:53.696Z,96035.67
2018-12-16T14:59:21.104Z,96044.08
2018-12-16T15:01:48.765Z,96051.88
2018-12-16T15:04:16.168Z,96050.58
2018-12-16T15:06:43.592Z,96057.57
2018-12-16T15:09:11.184Z,96060.76
2018-12-16T15:11:38.652Z,96064.40
2018-12-16T15:14:06.054Z,96070.67
2018-12-16T15:16:33.736Z,96071.62
2018-12-16T15:19:01.148Z,96070.78
2018-12-16T15:21:28.556Z,96070.78
2018-12-16T15:23:56.305Z,96061.77
2018-12-16T15:26:24.192Z,96059.17
2018-12-16T15:28:51.623Z,96063.45
2018-12-16T15:31:19.194Z,96060.37
2018-12-16T15:33:46.628Z,96058.72
2018-12-16T15:36:14.056Z,96064.27
2018-12-16T15:38:41.888Z,96069.47
2018-12-16T15:41:09.302Z,96078.69
2018-12-16T15:43:37.169Z,96073.48
2018-12-16T15:46:04.614Z,96078.69
2018-12-16T15:48:32.798Z,96080.47
2018-12-16T15:51:00.223Z,96087.80
2018-12-16T15:53:27.836Z,96087.45
2018-12-16T15:55:55.484Z,96091.13
2018-12-16T15:58:22.967Z,96087.33
2018-12-16T16:00:50.416Z,96087.80
2018-12-16T16:03:18.128Z,96093.35
2018-12-16T16:05:45.528Z,96092.42
2018-12-16T16:08:16.426Z,96095.48
2018-12-16T16:10:42.397Z,96106.37
2018-12-16T16:13:10.710Z,96101.75
2018-12-16T16:15:38.351Z,96100.55
2018-12-16T16:18:05.866Z,96099.48
2018-12-16T16:20:33.263Z,96102.67
2018-12-16T16:23:00.801Z,96097.81
2018-12-16T16:25:28.208Z,96098.19
2018-12-16T16:27:55.611Z,96102.33
2018-12-16T16:30:23.082Z,96091.55
2018-12-16T16:32:50.479Z,96081.52
2018-12-16T16:35:18.372Z,96080.21
2018-12-16T16:37:46.179Z,96081.52
2018-12-16T16:40:13.627Z,96087.54
2018-12-16T16:42:41.083Z,96082.34
2018-12-16T16:45:08.812Z,96093.94
2018-12-16T16:47:36.199Z,96095.23
2018-12-16T16:50:04.206Z,96100.23
2018-12-16T16:52:31.728Z,96101.88
2018-12-16T16:54:59.137Z,96099.98
2018-12-16T16:57:26.609Z,96101.56
2018-12-16T16:59:54.187Z,96103.58
2018-12-16T17:02:21.599Z,96112.92
2018-12-16T17:04:49.048Z,96116.25
2018-12-16T17:07:16.659Z,96118.27
2018-12-16T17:09:44.094Z,96117.89
2018-12-16T17:12:11.487Z,96118.27
2018-12-16T17:14:39.029Z,96127.85
2018-12-16T17:17:06.607Z,96122.27
2018-12-16T17:19:34.015Z,96121.80
2018-12-16T17:22:01.848Z,96133.40
2018-12-16T17:24:29.250Z,96142.41
2018-12-16T17:26:57.050Z,96142.41
2018-12-16T17:29:24.897Z,96141.34
2018-12-16T17:31:52.368Z,96146.44
2018-12-16T17:34:19.771Z,96154.25
2018-12-16T17:36:47.281Z,96149.31
2018-12-16T17:39:14.698Z,96154.97
2018-12-16T17:41:42.559Z,96151.78
2018-12-16T17:44:10.110Z,96147.53
2018-12-16T17:46:37.523Z,96143.63
2018-12-16T17:49:05.207Z,96144.55
2018-12-16T17:51:32.955Z,96145.96
2018-12-16T17:54:00.365Z,96154.73
2018-12-16T17:56:27.842Z,96149.15
2018-12-16T17:58:55.289Z,96146.09
2018-12-16T18:01:22.829Z,96145.73
2018-12-16T18:03:50.274Z,96144.32
2018-12-16T18:06:17.886Z,96146.81
2018-12-16T18:08:45.420Z,96139.94
2018-12-16T18:11:12.920Z,96143.50
2018-12-16T18:13:40.469Z,96146.92
2018-12-16T18:16:07.941Z,96138.16
2018-12-16T18:18:35.345Z,96137.33
2018-12-16T18:21:03.027Z,96147.64
2018-12-16T18:23:31.136Z,96141.95
2018-12-16T18:25:58.570Z,96136.75
2018-12-16T18:28:26.169Z,96146.13
2018-12-16T18:30:53.655Z,96142.56
2018-12-16T18:33:21.408Z,96149.89
2018-12-16T18:35:49.127Z,96150.75
2018-12-16T18:38:16.724Z,96150.27
2018-12-16T18:40:44.131Z,96145.98
2018-12-16T18:43:11.587Z,96148.59
2018-12-16T18:45:39.019Z,96150.03
2018-12-16T18:48:06.502Z,96152.98
2018-12-16T18:50:33.983Z,96155.58
2018-12-16T18:53:01.467Z,96154.66
2018-12-16T18:55:28.873Z,96150.27
2018-12-16T18:57:56.628Z,96153.70
2018-12-16T19:00:24.151Z,96155.82
2018-12-16T19:02:51.867Z,96154.89
2018-12-16T19:05:19.817Z,96166.39
2018-12-16T19:07:47.240Z,96160.23
2018-12-16T19:10:14.647Z,96167.11
2018-12-16T19:12:42.320Z,96167.45
2018-12-16T19:15:10.243Z,96166.97
2018-12-16T19:17:37.656Z,96168.17
2018-12-16T19:20:06.437Z,96172.45
2018-12-16T19:22:33.852Z,96160.36
2018-12-16T19:25:01.755Z,96167.24
2018-12-16T19:27:29.495Z,96165.83
2018-12-16T19:29:57.050Z,96165.70
2018-12-16T19:32:24.464Z,96164.77
2018-12-16T19:34:51.936Z,96174.59
2018-12-16T19:37:19.347Z,96168.91
2018-12-16T19:39:46.749Z,96165.83
2018-12-16T19:42:14.441Z,96166.68
2018-12-16T19:44:41.863Z,96163.22
2018-12-16T19:47:09.359Z,96163.81
2018-12-16T19:49:36.803Z,96164.88
2018-12-16T19:52:04.433Z,96163.23
2018-12-16T19:54:32.210Z,96161.92
2018-12-16T19:57:05.120Z,96165.56
2018-12-16T19:59:29.942Z,96167.83
2018-12-16T20:01:57.407Z,96169.13
2018-12-16T20:04:26.815Z,96167.83
2018-12-16T20:06:54.207Z,96172.19
2018-12-16T20:09:21.613Z,96173.48
2018-12-16T20:11:53.265Z,96175.75
2018-12-16T20:14:20.770Z,96179.17
2018-12-16T20:16:48.365Z,96178.70
2018-12-16T20:19:16.327Z,96183.08
2018-12-16T20:21:43.735Z,96184.38
2018-12-16T20:24:11.206Z,96184.86
2018-12-16T20:26:38.891Z,96184.86
2018-12-16T20:29:06.419Z,96178.35
2018-12-16T20:31:33.833Z,96186.40
2018-12-16T20:34:01.367Z,96180.61
2018-12-16T20:36:29.245Z,96187.49
2018-12-16T20:38:56.695Z,96190.44
2018-12-16T20:41:24.488Z,96191.73
2018-12-16T20:43:51.989Z,96185.23
2018-12-16T20:46:19.400Z,96183.59
2018-12-16T20:48:46.931Z,96188.80
2018-12-16T20:51:14.343Z,96191.40
2018-12-16T20:53:41.885Z,96187.12
2018-12-16T20:56:09.513Z,96180.50
2018-12-16T20:58:36.914Z,96186.67
2018-12-16T21:01:04.931Z,96178.59
2018-12-16T21:03:32.487Z,96182.15
2018-12-16T21:05:59.895Z,96174.78
2018-12-16T21:08:27.378Z,96177.05
2018-12-16T21:10:54.859Z,96173.48
2018-12-16T21:13:27.952Z,96165.67
2018-12-16T21:16:01.346Z,96174.69
2018-12-16T21:18:30.424Z,96176.47
2018-12-16T21:20:57.972Z,96169.47
2018-12-16T21:23:25.558Z,96175.98
2018-12-16T21:25:52.963Z,96171.73
2018-12-16T21:28:20.359Z,96167.69
2018-12-16T21:30:47.927Z,96164.98
2018-12-16T21:33:15.332Z,96169.60
2018-12-16T21:35:42.738Z,96169.98
2018-12-16T21:38:10.173Z,96161.20
2018-12-16T21:40:37.583Z,96156.00
2018-12-16T21:43:05.078Z,96153.88
2018-12-16T21:45:32.565Z,96158.73
2018-12-16T21:48:00.754Z,96155.66
2018-12-16T21:50:28.452Z,96150.55
2018-12-16T21:52:56.045Z,96145.45
2018-12-16T21:55:23.456Z,96146.52
2018-12-16T21:57:51.457Z,96142.38
2018-12-16T22:00:19.042Z,96144.27
2018-12-16T22:02:46.640Z,96151.09
2018-12-16T22:05:15.281Z,96155.95
2018-12-16T22:07:43.373Z,96168.39
2018-12-16T22:10:10.781Z,96174.52
2018-12-16T22:12:38.185Z,96180.11
2018-12-16T22:15:05.833Z,96181.52
2018-12-16T22:17:34.163Z,96182.09
2018-12-16T22:20:01.576Z,96178.77
2018-12-16T22:22:29.006Z,96182.20
2018-12-16T22:24:56.776Z,96172.75
2018-12-16T22:27:24.184Z,96173.67
2018-12-16T22:29:51.773Z,96169.05
2018-12-16T22:32:19.184Z,96170.45
2018-12-16T22:34:47.401Z,96170.11
2018-12-16T22:37:15.103Z,96171.42
2018-12-16T22:39:42.561Z,96170.70
2018-12-16T22:42:09.980Z,96160.02
2018-12-16T22:44:37.569Z,96167.11
2018-12-16T22:47:05.360Z,96166.77
2018-12-16T22:49:32.900Z,96166.87
2018-12-16T22:52:00.764Z,96162.14
2018-12-16T22:54:28.176Z,96163.89
2018-12-16T22:56:55.788Z,96166.63
2018-12-16T22:59:23.256Z,96174.55
2018-12-16T23:01:50.716Z,96173.55
2018-12-16T23:04:18.180Z,96171.63
2018-12-16T23:06:46.508Z,96167.97
2018-12-16T23:09:13.957Z,96171.16
2018-12-16T23:11:41.493Z,96174.92
2018-12-16T23:14:08.962Z,96173.10
2018-12-16T23:16:37.940Z,96177.69
2018-12-16T23:19:05.460Z,96175.05
2018-12-16T23:21:33.037Z,96168.50
2018-12-16T23:24:00.439Z,96161.04
2018-12-16T23:26:27.920Z,96171.20
2018-12-16T23:28:55.494Z,96175.41
2018-12-16T23:31:23.577Z,96172.66
2018-12-16T23:33:50.983Z,96170.63
2018-12-16T23:36:18.572Z,96171.11
2018-12-16T23:38:46.312Z,96169.71
2018-12-16T23:41:14.599Z,96160.13
2018-12-16T23:43:42.177Z,96160.23
2018-12-16T23:46:09.587Z,96157.63
2018-12-16T23:48:37.081Z,96160.81
2018-12-16T23:51:04.670Z,96164.23
2018-12-16T23:53:32.088Z,96162.49
2018-12-16T23:56:00.188Z,96166.64
2018-12-16T23:58:27.615Z,96160.37
